Ada, Ohio
Current Conditions -  °F | °C
As of 8:55 AM on Thursday 30 Oct 2014 (Local Time) from KAOH Reporting Station
Haze Haze  
Wind Chill: 42°   Ceiling: 4000
Heat Index: 42°   Visibility: 1.7mi
Dew Point: 38°   Wind: 0mph
Humidity: 85%   Direction: NA
Pressure: 30.15"   Gusts: NA
Location:  40.78°N, 83.82°W
Report Text: KAOH 301255Z AUTO 00000KT 1 3/4SM BR BKN040 06/03 A3015 RMK AO2 T00560033
Loading
Personal Weather Stations






























Interactive Weather Map
Tropical Storm Tracking
New forecast layout! Learn more

10-Day Weather Forecast

Advertisements
Track Severe Weather on mobile